Main page
METAR-TAF:

METAR-TAF

Airports :

Indianapolis Executive Airport

Indianapolis, Indiana, United States

latitude: 40-01-50N, longitude: 086-15-05W, elevation: 922 ft

Current weather observation

The report was made 14 minutes ago, at 21:55 UTC
Wind 5 mph from the North
Temperature 48°F
Humidity 71%
Pressure 30.05 in. Hg
Visibility: 10 miles
Overcast at a height of 5500 ft

METAR: KTYQ 012155Z AUTO 35004KT 10SM OVC055 09/04 A3005 RMK AO2 T00930035

Time: 16:09 (22:09 UTC)


TAF: missing

Weather observations and forecasts of more than 4000 airports (METAR and TAF reports).

The available stations are represented by yellow and red dots on the map.

Hover mouse over dot to see the name of the station.

Then click to see weather observations and forecasts.

To change the map : click on the green buttons with a black cross to zoom in, on the green button with a dash to zoom out, or on the green arrows for adjacent maps.


METAR-TAF: